| time (UTC) | temp F | wind direction | speed knots | gust knots | rain 1hr in | rain 24hr in | rain mn in | humidity % | barometer mb |
| 20260504204549 | 76 | 0.0 | 0.0 | 0.00 | 0.00 | 0.00 | 30 | 1002.6 | |
| 20260504204045 | 76 | 0.0 | 0.0 | 0.00 | 0.00 | 0.00 | 33 | 1002.6 | |
| 20260504203617 | 76 | 0.0 | 0.0 | 0.00 | 0.00 | 0.00 | 31 | 1002.4 | |
| 20260504203108 | 77 | 0.0 | 0.0 | 0.00 | 0.00 | 0.00 | 31 | 1002.3 | |
| 20260504202555 | 78 | 0.0 | 0.0 | 0.00 | 0.00 | 0.00 | 29 | 1002.4 | |
| 20260504202047 | 78 | 0.0 | 0.0 | 0.00 | 0.00 | 0.00 | 30 | 1002.3 | |
| 20260504201559 | 78 | 0.0 | 0.0 | 0.00 | 0.00 | 0.00 | 28 | 1002.3 | |
| 20260504201049 | 79 | 0.0 | 0.0 | 0.00 | 0.00 | 0.00 | 28 | 1002.4 | |
| 20260504200602 | 80 | 0.0 | 0.0 | 0.00 | 0.00 | 0.00 | 26 | 1002.4 | |
| 20260504200127 | 79 | 0.0 | 0.0 | 0.00 | 0.00 | 0.00 | 27 | 1002.5 | |
| 20260504195613 | 80 | 0.0 | 0.0 | 0.00 | 0.00 | 0.00 | 27 | 1002.5 | |
| 20260504195047 | 81 | 0.0 | 0.0 | 0.00 | 0.00 | 0.00 | 26 | 1002.5 | |
| 20260504194558 | 82 | 0.0 | 0.0 | 0.00 | 0.00 | 0.00 | 20 | 1002.6 | |
| 20260504194050 | 81 | 0.0 | 0.0 | 0.00 | 0.00 | 0.00 | 20 | 1002.7 | |
| 20260504193602 | 82 | 0.0 | 0.0 | 0.00 | 0.00 | 0.00 | 19 | 1002.5 | |
| 20260504193053 | 82 | 0.0 | 0.0 | 0.00 | 0.00 | 0.00 | 20 | 1002.4 | |
| 20260504192544 | 82 | 0.0 | 0.0 | 0.00 | 0.00 | 0.00 | 20 | 1002.6 | |
| 20260504192057 | 82 | 0.0 | 0.0 | 0.00 | 0.00 | 0.00 | 21 | 1002.7 | |
| 20260504191549 | 81 | 0.0 | 0.0 | 0.00 | 0.00 | 0.00 | 25 | 1002.7 | |
| 20260504191045 | 80 | 0.0 | 0.0 | 0.00 | 0.00 | 0.00 | 21 | 1002.7 | |
| 20260504190556 | 80 | 0.0 | 0.0 | 0.00 | 0.00 | 0.00 | 23 | 1002.8 | |
| 20260504190122 | 80 | 0.0 | 0.0 | 0.00 | 0.00 | 0.00 | 22 | 1002.8 | |
| 20260504185550 | 80 | 0.0 | 0.0 | 0.00 | 0.00 | 0.00 | 21 | 1002.8 | |
| 20260504185101 | 80 | 0.0 | 0.0 | 0.00 | 0.00 | 0.00 | 20 | 1002.9 | |
| 20260504184614 | 80 | 0.0 | 0.0 | 0.00 | 0.00 | 0.00 | 18 | 1002.9 | |
| 20260504184043 | 80 | 0.0 | 0.0 | 0.00 | 0.00 | 0.00 | 21 | 1003.0 | |
| 20260504183555 | 80 | 0.0 | 0.0 | 0.00 | 0.00 | 0.00 | 22 | 1002.8 | |
| 20260504183047 | 80 | 0.0 | 0.0 | 0.00 | 0.00 | 0.00 | 22 | 1003.0 | |
| 20260504182543 | 80 | 0.0 | 0.0 | 0.00 | 0.00 | 0.00 | 23 | 1003.2 | |
| 20260504182055 | 80 | 0.0 | 0.0 | 0.00 | 0.00 | 0.00 | 24 | 1003.2 | |
| 20260504181548 | 79 | 0.0 | 0.0 | 0.00 | 0.00 | 0.00 | 24 | 1003.2 | |
| 20260504181120 | 79 | 0.0 | 0.0 | 0.00 | 0.00 | 0.00 | 21 | 1003.2 | |
| 20260504180552 | 78 | 0.0 | 0.0 | 0.00 | 0.00 | 0.00 | 22 | 1003.3 | |
| 20260504180115 | 78 | 0.0 | 0.0 | 0.00 | 0.00 | 0.00 | 21 | 1003.4 | |
| 20260504175543 | 79 | 0.0 | 0.0 | 0.00 | 0.00 | 0.00 | 21 | 1003.5 | |
| 20260504175054 | 79 | 0.0 | 0.0 | 0.00 | 0.00 | 0.00 | 24 | 1003.5 | |
| 20260504174606 | 79 | 0.0 | 0.0 | 0.00 | 0.00 | 0.00 | 22 | 1003.6 | |
| 20260504174055 | 79 | 0.0 | 0.0 | 0.00 | 0.00 | 0.00 | 23 | 1003.6 | |
| 20260504173551 | 79 | 0.0 | 0.0 | 0.00 | 0.00 | 0.00 | 21 | 1003.6 | |
| 20260504173044 | 80 | 0.0 | 0.0 | 0.00 | 0.00 | 0.00 | 19 | 1003.7 | |
| 20260504172556 | 79 | 0.0 | 0.0 | 0.00 | 0.00 | 0.00 | 17 | 1003.7 | |
| 20260504172047 | 79 | 0.0 | 0.0 | 0.00 | 0.00 | 0.00 | 20 | 1003.7 | |
| 20260504171559 | 78 | 0.0 | 0.0 | 0.00 | 0.00 | 0.00 | 19 | 1003.7 | |
| 20260504171050 | 79 | 0.0 | 0.0 | 0.00 | 0.00 | 0.00 | 20 | 1003.8 | |
| 20260504170621 | 79 | 0.0 | 0.0 | 0.00 | 0.00 | 0.00 | 22 | 1003.8 | |
| 20260504170107 | 79 | 0.0 | 0.0 | 0.00 | 0.00 | 0.00 | 22 | 1003.8 | |
| 20260504160119 | 76 | 0.0 | 0.0 | 0.00 | 0.00 | 0.00 | 26 | 1003.8 | |
| 20260504151053 | 71 | 0.0 | 0.0 | 0.00 | 0.00 | 0.00 | 36 | 1004.4 | |
| 20260504150546 | 70 | 0.0 | 0.0 | 0.00 | 0.00 | 0.00 | 36 | 1004.4 | |
| 20260504150149 | 70 | 0.0 | 0.0 | 0.00 | 0.00 | 0.00 | 36 | 1004.4 | |
| 20260504141041 | 61 | 0.0 | 0.0 | 0.00 | 0.00 | 0.00 | 46 | 1004.8 | |
| 20260504140553 | 61 | 0.0 | 0.0 | 0.00 | 0.00 | 0.00 | 47 | 1004.7 | |
| 20260504140120 | 60 | 0.0 | 0.0 | 0.00 | 0.00 | 0.00 | 47 | 1004.8 | |
| 20260504130552 | 53 | 0.0 | 0.0 | 0.00 | 0.00 | 0.00 | 62 | 1004.6 | |
| 20260504130119 | 52 | 0.0 | 0.0 | 0.00 | 0.00 | 0.00 | 63 | 1004.4 | |
| 20260504120110 | 48 | 0.0 | 0.0 | 0.00 | 0.00 | 0.00 | 62 | 1004.3 | |
| 20260504110558 | 45 | 0.0 | 0.0 | 0.00 | 0.00 | 0.00 | 67 | 1004.4 | |
| 20260504110124 | 45 | 0.0 | 0.0 | 0.00 | 0.00 | 0.00 | 67 | 1004.4 | |
| 20260504100552 | 45 | 0.0 | 0.0 | 0.00 | 0.00 | 0.00 | 67 | 1004.7 | |
| 20260504100119 | 45 | 0.0 | 0.0 | 0.00 | 0.00 | 0.00 | 67 | 1004.7 | |
| 20260504090121 | 46 | 0.0 | 0.0 | 0.00 | 0.00 | 0.00 | 64 | 1004.9 | |
| 20260504081541 | 49 | 0.0 | 0.0 | 0.00 | 0.00 | 0.00 | 60 | 1005.5 | |
| 20260504081053 | 49 | 0.0 | 0.0 | 0.00 | 0.00 | 0.00 | 59 | 1005.4 | |
| 20260504080543 | 50 | 0.0 | 0.0 | 0.00 | 0.00 | 0.00 | 58 | 1005.4 | |
| 20260504080115 | 50 | 0.0 | 0.0 | 0.00 | 0.00 | 0.00 | 56 | 1005.5 | |
| 20260504070106 | 51 | 0.0 | 0.0 | 0.00 | 0.00 | 0.00 | 55 | 1006.0 | |
| 20260504060119 | 51 | 0.0 | 0.0 | 0.00 | 0.00 | 0.00 | 55 | 1006.6 | |
| 20260504050600 | 54 | 0.0 | 0.0 | 0.00 | 0.00 | 0.00 | 49 | 1007.2 | |
| 20260504050105 | 54 | 0.0 | 0.0 | 0.00 | 0.00 | 0.00 | 49 | 1007.1 | |
| 20260504045553 | 55 | 0.0 | 0.0 | 0.00 | 0.00 | 0.00 | 48 | 1007.1 | |
| 20260504045050 | 55 | 0.0 | 0.0 | 0.00 | 0.00 | 0.00 | 47 | 1007.1 | |
| 20260504044542 | 56 | 0.0 | 0.0 | 0.00 | 0.00 | 0.00 | 47 | 1007.2 | |
| 20260504044054 | 55 | 0.0 | 0.0 | 0.00 | 0.00 | 0.00 | 48 | 1007.2 | |
| 20260504043545 | 55 | 0.0 | 0.0 | 0.00 | 0.00 | 0.00 | 48 | 1007.2 | |
| 20260504043058 | 55 | 0.0 | 0.0 | 0.00 | 0.00 | 0.00 | 48 | 1007.2 | |
| 20260504042549 | 55 | 0.0 | 0.0 | 0.00 | 0.00 | 0.00 | 49 | 1007.2 | |
| 20260504042100 | 55 | 0.0 | 0.0 | 0.00 | 0.00 | 0.00 | 47 | 1007.2 | |
| 20260504041552 | 55 | 0.0 | 0.0 | 0.00 | 0.00 | 0.00 | 47 | 1007.3 | |
| 20260504041042 | 56 | 0.0 | 0.0 | 0.00 | 0.00 | 0.00 | 46 | 1007.2 | |
| 20260504040558 | 56 | 0.0 | 0.0 | 0.00 | 0.00 | 0.00 | 45 | 1007.3 | |
| 20260504040104 | 56 | 0.0 | 0.0 | 0.00 | 0.00 | 0.00 | 46 | 1007.3 | |
| 20260504035552 | 56 | 0.0 | 0.0 | 0.00 | 0.00 | 0.00 | 47 | 1007.4 | |
| 20260504035044 | 55 | 0.0 | 0.0 | 0.00 | 0.00 | 0.00 | 47 | 1007.5 | |
| 20260504034553 | 56 | 0.0 | 0.0 | 0.00 | 0.00 | 0.00 | 46 | 1007.4 | |
| 20260504034044 | 56 | 0.0 | 0.0 | 0.00 | 0.00 | 0.00 | 45 | 1007.2 | |
| 20260504033612 | 56 | 0.0 | 0.0 | 0.00 | 0.00 | 0.00 | 45 | 1007.2 | |
| 20260504033044 | 57 | 0.0 | 0.0 | 0.00 | 0.00 | 0.00 | 45 | 1007.2 | |
| 20260504032555 | 56 | 0.0 | 0.0 | 0.00 | 0.00 | 0.00 | 45 | 1007.2 | |
| 20260504032047 | 56 | 0.0 | 0.0 | 0.00 | 0.00 | 0.00 | 45 | 1007.1 | |
| 20260504031559 | 56 | 0.0 | 0.0 | 0.00 | 0.00 | 0.00 | 45 | 1007.1 | |
| 20260504031048 | 57 | 0.0 | 0.0 | 0.00 | 0.00 | 0.00 | 44 | 1007.2 | |
| 20260504030559 | 57 | 0.0 | 0.0 | 0.00 | 0.00 | 0.00 | 44 | 1007.1 | |
| 20260504030104 | 58 | 0.0 | 0.0 | 0.00 | 0.00 | 0.00 | 43 | 1007.1 | |
| 20260504025551 | 58 | 0.0 | 0.0 | 0.00 | 0.00 | 0.00 | 43 | 1007.1 | |
| 20260504025043 | 58 | 0.0 | 0.0 | 0.00 | 0.00 | 0.00 | 43 | 1006.9 | |
| 20260504024555 | 58 | 0.0 | 0.0 | 0.00 | 0.00 | 0.00 | 43 | 1006.8 | |
| 20260504024045 | 59 | 0.0 | 0.0 | 0.00 | 0.00 | 0.00 | 42 | 1006.8 | |
| 20260504023617 | 59 | 0.0 | 0.0 | 0.00 | 0.00 | 0.00 | 42 | 1006.8 | |
| 20260504023051 | 60 | 0.0 | 0.0 | 0.00 | 0.00 | 0.00 | 41 | 1006.8 | |
| 20260504022543 | 60 | 0.0 | 0.0 | 0.00 | 0.00 | 0.00 | 40 | 1006.9 | |
| 20260504022054 | 60 | 0.0 | 0.0 | 0.00 | 0.00 | 0.00 | 40 | 1006.9 | |
| 20260504021546 | 60 | 0.0 | 0.0 | 0.00 | 0.00 | 0.00 | 39 | 1006.9 | |
| 20260504021058 | 61 | 0.0 | 0.0 | 0.00 | 0.00 | 0.00 | 38 | 1006.8 | |
| 20260504020549 | 61 | 0.0 | 0.0 | 0.00 | 0.00 | 0.00 | 38 | 1006.8 | |
| 20260504020116 | 62 | 0.0 | 0.0 | 0.00 | 0.00 | 0.00 | 37 | 1006.7 | |
| 20260504015621 | 63 | 0.0 | 0.0 | 0.00 | 0.00 | 0.00 | 38 | 1006.7 | |
| 20260504015048 | 63 | 0.0 | 0.0 | 0.00 | 0.00 | 0.00 | 38 | 1006.6 | |
| 20260504014544 | 63 | 0.0 | 0.0 | 0.00 | 0.00 | 0.00 | 39 | 1006.7 | |
| 20260504014055 | 63 | 0.0 | 0.0 | 0.00 | 0.00 | 0.00 | 40 | 1006.6 | |
| 20260504013547 | 63 | 0.0 | 0.0 | 0.00 | 0.00 | 0.00 | 40 | 1006.6 | |
| 20260504013117 | 64 | 0.0 | 0.0 | 0.00 | 0.00 | 0.00 | 40 | 1006.6 | |
| 20260504012608 | 64 | 0.0 | 0.0 | 0.00 | 0.00 | 0.00 | 40 | 1006.6 | |
| 20260504012058 | 64 | 0.0 | 0.0 | 0.00 | 0.00 | 0.00 | 39 | 1006.6 | |
| 20260504011609 | 65 | 0.0 | 0.0 | 0.00 | 0.00 | 0.00 | 39 | 1006.7 | |
| 20260504011057 | 65 | 0.0 | 0.0 | 0.00 | 0.00 | 0.00 | 39 | 1006.7 | |
| 20260504010610 | 66 | 0.0 | 0.0 | 0.00 | 0.00 | 0.00 | 39 | 1006.7 | |
| 20260504010114 | 67 | 0.0 | 0.0 | 0.00 | 0.00 | 0.00 | 39 | 1006.7 | |
| 20260504005541 | 68 | 0.0 | 0.0 | 0.00 | 0.00 | 0.00 | 38 | 1006.8 | |
| 20260504005057 | 69 | 0.0 | 0.0 | 0.00 | 0.00 | 0.00 | 37 | 1006.8 | |
| 20260504004545 | 69 | 0.0 | 0.0 | 0.00 | 0.00 | 0.00 | 36 | 1006.9 | |
| 20260504004056 | 70 | 0.0 | 0.0 | 0.00 | 0.00 | 0.00 | 35 | 1006.9 | |
| 20260504003546 | 70 | 0.0 | 0.0 | 0.00 | 0.00 | 0.00 | 34 | 1007.0 | |
| 20260504003058 | 70 | 0.0 | 0.0 | 0.00 | 0.00 | 0.00 | 32 | 1007.0 | |
| 20260504002547 | 70 | 0.0 | 0.0 | 0.00 | 0.00 | 0.00 | 33 | 1007.0 | |
| 20260504002056 | 71 | 0.0 | 0.0 | 0.00 | 0.00 | 0.00 | 32 | 1007.1 | |
| 20260504001544 | 71 | 0.0 | 0.0 | 0.00 | 0.00 | 0.00 | 31 | 1007.2 | |
| 20260504001039 | 72 | 0.0 | 0.0 | 0.00 | 0.00 | 0.00 | 30 | 1007.3 | |
| 20260504000611 | 72 | 0.0 | 0.0 | 0.00 | 0.00 | 0.00 | 30 | 1007.3 | |
| 20260504000115 | 73 | 0.0 | 0.0 | 0.00 | 0.00 | 0.00 | 32 | 1007.4 | |
| 20260503235543 | 73 | 0.0 | 0.0 | 0.00 | 0.00 | 0.00 | 27 | 1007.5 | |
| 20260503235050 | 73 | 0.0 | 0.0 | 0.00 | 0.00 | 0.00 | 31 | 1007.5 | |
| 20260503234542 | 73 | 0.0 | 0.0 | 0.00 | 0.00 | 0.00 | 32 | 1007.6 | |
| 20260503234052 | 74 | 0.0 | 0.0 | 0.00 | 0.00 | 0.00 | 29 | 1007.7 | |
| 20260503233544 | 74 | 0.0 | 0.0 | 0.00 | 0.00 | 0.00 | 27 | 1007.7 | |
| 20260503233116 | 75 | 0.0 | 0.0 | 0.00 | 0.00 | 0.00 | 27 | 1007.8 | |
| 20260503232544 | 75 | 0.0 | 0.0 | 0.00 | 0.00 | 0.00 | 29 | 1007.9 | |
| 20260503232040 | 74 | 0.0 | 0.0 | 0.00 | 0.00 | 0.00 | 31 | 1007.9 | |
| 20260503231551 | 73 | 0.0 | 0.0 | 0.00 | 0.00 | 0.00 | 31 | 1007.9 | |
| 20260503231102 | 73 | 0.0 | 0.0 | 0.00 | 0.00 | 0.00 | 30 | 1007.7 | |
| 20260503230551 | 73 | 0.0 | 0.0 | 0.00 | 0.00 | 0.00 | 30 | 1007.7 | |
| 20260503230134 | 73 | 0.0 | 0.0 | 0.00 | 0.00 | 0.00 | 28 | 1007.8 | |
| 20260503225539 | 73 | 0.0 | 0.0 | 0.00 | 0.00 | 0.00 | 28 | 1007.9 | |
| 20260503225050 | 73 | 0.0 | 0.0 | 0.00 | 0.00 | 0.00 | 29 | 1008.0 | |
| 20260503224542 | 74 | 0.0 | 0.0 | 0.00 | 0.00 | 0.00 | 29 | 1008.0 | |
| 20260503224053 | 74 | 0.0 | 0.0 | 0.00 | 0.00 | 0.00 | 28 | 1007.9 | |
| 20260503223545 | 75 | 0.0 | 0.0 | 0.00 | 0.00 | 0.00 | 27 | 1007.9 | |
| 20260503223040 | 75 | 0.0 | 0.0 | 0.00 | 0.00 | 0.00 | 28 | 1008.0 | |
| 20260503222550 | 74 | 0.0 | 0.0 | 0.00 | 0.00 | 0.00 | 28 | 1008.0 | |
| 20260503222101 | 75 | 0.0 | 0.0 | 0.00 | 0.00 | 0.00 | 28 | 1008.2 | |
| 20260503221550 | 75 | 0.0 | 0.0 | 0.00 | 0.00 | 0.00 | 27 | 1008.4 | |
| 20260503221042 | 75 | 0.0 | 0.0 | 0.00 | 0.00 | 0.00 | 27 | 1008.5 | |
| 20260503220555 | 75 | 0.0 | 0.0 | 0.00 | 0.00 | 0.00 | 26 | 1008.6 | |
| 20260503220122 | 75 | 0.0 | 0.0 | 0.00 | 0.00 | 0.00 | 26 | 1008.7 | |
| 20260503215549 | 75 | 0.0 | 0.0 | 0.00 | 0.00 | 0.00 | 27 | 1008.7 | |
| 20260503215039 | 75 | 0.0 | 0.0 | 0.00 | 0.00 | 0.00 | 26 | 1008.8 | |
| 20260503214556 | 75 | 0.0 | 0.0 | 0.00 | 0.00 | 0.00 | 27 | 1009.0 | |
| 20260503214045 | 75 | 0.0 | 0.0 | 0.00 | 0.00 | 0.00 | 27 | 1009.1 | |
| 20260503213557 | 75 | 0.0 | 0.0 | 0.00 | 0.00 | 0.00 | 26 | 1009.1 | |
| 20260503213106 | 75 | 0.0 | 0.0 | 0.00 | 0.00 | 0.00 | 27 | 1009.2 | |
| 20260503212557 | 76 | 0.0 | 0.0 | 0.00 | 0.00 | 0.00 | 29 | 1009.3 | |
| 20260503212050 | 76 | 0.0 | 0.0 | 0.00 | 0.00 | 0.00 | 26 | 1009.3 | |
| 20260503211600 | 76 | 0.0 | 0.0 | 0.00 | 0.00 | 0.00 | 28 | 1009.2 | |
| 20260503211051 | 76 | 0.0 | 0.0 | 0.00 | 0.00 | 0.00 | 26 | 1009.3 | |
| 20260503210602 | 76 | 0.0 | 0.0 | 0.00 | 0.00 | 0.00 | 26 | 1009.3 | |
| 20260503210107 | 76 | 0.0 | 0.0 | 0.00 | 0.00 | 0.00 | 26 | 1009.3 | |
| 20260503205540 | 76 | 0.0 | 0.0 | 0.00 | 0.00 | 0.00 | 25 | 1009.3 | |
| 20260503205052 | 76 | 0.0 | 0.0 | 0.00 | 0.00 | 0.00 | 26 | 1009.4 |